sensor_id;sensor_type;location;lat;lon;timestamp;pressure;altitude;pressure_sealevel;temperature;humidity
13407;BME280;6774;48.208;10.766;2023-05-21T00:01:45;95140.69;;;15.41;83.87
13407;BME280;6774;48.208;10.766;2023-05-21T00:04:14;95138.50;;;15.38;83.86
13407;BME280;6774;48.208;10.766;2023-05-21T00:06:42;95140.78;;;15.34;84.18
13407;BME280;6774;48.208;10.766;2023-05-21T00:09:10;95138.59;;;15.31;84.11
13407;BME280;6774;48.208;10.766;2023-05-21T00:11:39;95136.50;;;15.33;84.15
13407;BME280;6774;48.208;10.766;2023-05-21T00:14:06;95139.75;;;15.35;84.17
13407;BME280;6774;48.208;10.766;2023-05-21T00:16:35;95136.50;;;15.33;84.38
13407;BME280;6774;48.208;10.766;2023-05-21T00:19:03;95135.94;;;15.31;84.32
13407;BME280;6774;48.208;10.766;2023-05-21T00:21:31;95130.03;;;15.29;83.92
13407;BME280;6774;48.208;10.766;2023-05-21T00:23:59;95135.94;;;15.31;84.13
13407;BME280;6774;48.208;10.766;2023-05-21T00:26:27;95125.75;;;15.28;84.03
13407;BME280;6774;48.208;10.766;2023-05-21T00:28:56;95133.94;;;15.26;84.39
13407;BME280;6774;48.208;10.766;2023-05-21T00:31:24;95132.94;;;15.27;84.23
13407;BME280;6774;48.208;10.766;2023-05-21T00:33:53;95128.63;;;15.26;84.40
13407;BME280;6774;48.208;10.766;2023-05-21T00:36:21;95139.06;;;15.28;84.43
13407;BME280;6774;48.208;10.766;2023-05-21T00:38:50;95123.53;;;15.25;84.64
13407;BME280;6774;48.208;10.766;2023-05-21T00:41:18;95123.53;;;15.25;84.36
13407;BME280;6774;48.208;10.766;2023-05-21T00:43:48;95123.53;;;15.25;84.44
13407;BME280;6774;48.208;10.766;2023-05-21T00:46:17;95127.00;;;15.25;84.22
13407;BME280;6774;48.208;10.766;2023-05-21T00:48:46;95131.75;;;15.23;84.36
13407;BME280;6774;48.208;10.766;2023-05-21T00:51:16;95124.00;;;15.22;84.23
13407;BME280;6774;48.208;10.766;2023-05-21T00:53:49;95121.38;;;15.03;83.35
13407;BME280;6774;48.208;10.766;2023-05-21T00:56:18;95128.03;;;14.94;83.41
13407;BME280;6774;48.208;10.766;2023-05-21T00:58:47;95127.31;;;14.87;83.84
13407;BME280;6774;48.208;10.766;2023-05-21T01:01:17;95123.03;;;14.86;83.90
13407;BME280;6774;48.208;10.766;2023-05-21T01:03:45;95115.50;;;14.83;84.39
13407;BME280;6774;48.208;10.766;2023-05-21T01:06:14;95119.22;;;14.82;84.68
13407;BME280;6774;48.208;10.766;2023-05-21T01:08:43;95126.13;;;14.83;84.82
13407;BME280;6774;48.208;10.766;2023-05-21T01:11:12;95136.75;;;14.83;85.02
13407;BME280;6774;48.208;10.766;2023-05-21T01:13:41;95123.47;;;14.83;84.83
13407;BME280;6774;48.208;10.766;2023-05-21T01:16:10;95125.91;;;14.85;85.08
13407;BME280;6774;48.208;10.766;2023-05-21T01:18:39;95121.88;;;14.82;85.05
13407;BME280;6774;48.208;10.766;2023-05-21T01:21:11;95119.22;;;14.82;85.20
13407;BME280;6774;48.208;10.766;2023-05-21T01:23:40;95119.22;;;14.82;85.15
13407;BME280;6774;48.208;10.766;2023-05-21T01:26:08;95116.75;;;14.80;84.84
13407;BME280;6774;48.208;10.766;2023-05-21T01:28:38;95108.56;;;14.82;84.91
13407;BME280;6774;48.208;10.766;2023-05-21T01:31:13;95113.88;;;14.82;85.22
13407;BME280;6774;48.208;10.766;2023-05-21T01:33:46;95110.63;;;14.80;85.29
13407;BME280;6774;48.208;10.766;2023-05-21T01:36:19;95122.28;;;14.79;85.03
13407;BME280;6774;48.208;10.766;2023-05-21T01:38:56;95114.41;;;14.72;85.30
13407;BME280;6774;48.208;10.766;2023-05-21T01:41:28;95105.03;;;14.70;85.32
13407;BME280;6774;48.208;10.766;2023-05-21T01:43:58;95106.06;;;14.69;85.23
13407;BME280;6774;48.208;10.766;2023-05-21T01:46:29;95102.66;;;14.62;85.82
13407;BME280;6774;48.208;10.766;2023-05-21T01:49:00;95096.94;;;14.65;85.45
13407;BME280;6774;48.208;10.766;2023-05-21T01:51:28;95102.66;;;14.62;85.48
13407;BME280;6774;48.208;10.766;2023-05-21T01:53:58;95108.44;;;14.59;85.67
13407;BME280;6774;48.208;10.766;2023-05-21T01:56:26;95099.06;;;14.56;85.43
13407;BME280;6774;48.208;10.766;2023-05-21T01:58:55;95093.38;;;14.52;85.82
13407;BME280;6774;48.208;10.766;2023-05-21T02:01:24;95098.69;;;14.52;86.12
13407;BME280;6774;48.208;10.766;2023-05-21T02:03:52;95097.88;;;14.52;85.91
13407;BME280;6774;48.208;10.766;2023-05-21T02:06:20;95099.16;;;14.49;86.01
13407;BME280;6774;48.208;10.766;2023-05-21T02:08:48;95098.34;;;14.49;85.98
13407;BME280;6774;48.208;10.766;2023-05-21T02:11:18;95101.63;;;14.44;86.22
13407;BME280;6774;48.208;10.766;2023-05-21T02:13:46;95095.72;;;14.42;86.63
13407;BME280;6774;48.208;10.766;2023-05-21T02:16:14;95094.69;;;14.43;86.42
13407;BME280;6774;48.208;10.766;2023-05-21T02:18:42;95093.66;;;14.44;86.20
13407;BME280;6774;48.208;10.766;2023-05-21T02:21:10;95090.41;;;14.42;86.46
13407;BME280;6774;48.208;10.766;2023-05-21T02:23:38;95090.63;;;14.41;86.68
13407;BME280;6774;48.208;10.766;2023-05-21T02:26:07;95091.00;;;14.44;86.71
13407;BME280;6774;48.208;10.766;2023-05-21T02:28:37;95092.66;;;14.45;86.91
13407;BME280;6774;48.208;10.766;2023-05-21T02:31:05;95097.97;;;14.45;86.41
13407;BME280;6774;48.208;10.766;2023-05-21T02:33:33;95106.56;;;14.41;86.52
13407;BME280;6774;48.208;10.766;2023-05-21T02:36:01;95104.94;;;14.40;86.33
13407;BME280;6774;48.208;10.766;2023-05-21T02:38:29;95091.09;;;14.38;86.57
13407;BME280;6774;48.208;10.766;2023-05-21T02:40:58;95087.63;;;14.37;86.54
13407;BME280;6774;48.208;10.766;2023-05-21T02:43:26;95084.34;;;14.35;86.61
13407;BME280;6774;48.208;10.766;2023-05-21T02:45:55;95082.53;;;14.36;86.51
13407;BME280;6774;48.208;10.766;2023-05-21T02:48:25;95076.41;;;14.35;86.44
13407;BME280;6774;48.208;10.766;2023-05-21T02:50:53;95078.47;;;14.33;86.66
13407;BME280;6774;48.208;10.766;2023-05-21T02:53:20;95078.47;;;14.33;86.42
13407;BME280;6774;48.208;10.766;2023-05-21T02:55:48;95082.16;;;14.32;86.38
13407;BME280;6774;48.208;10.766;2023-05-21T02:58:16;95085.03;;;14.31;86.37
13407;BME280;6774;48.208;10.766;2023-05-21T03:00:44;95082.97;;;14.33;86.49
13407;BME280;6774;48.208;10.766;2023-05-21T03:03:13;95077.66;;;14.33;86.31
13407;BME280;6774;48.208;10.766;2023-05-21T03:05:41;95083.34;;;14.36;86.18
13407;BME280;6774;48.208;10.766;2023-05-21T03:08:11;95078.84;;;14.37;85.99
13407;BME280;6774;48.208;10.766;2023-05-21T03:10:38;95079.88;;;14.36;85.72
13407;BME280;6774;48.208;10.766;2023-05-21T03:13:07;95079.72;;;14.31;85.49
13407;BME280;6774;48.208;10.766;2023-05-21T03:15:35;95079.38;;;14.27;85.62
13407;BME280;6774;48.208;10.766;2023-05-21T03:18:05;95079.78;;;14.24;85.63
13407;BME280;6774;48.208;10.766;2023-05-21T03:20:34;95084.50;;;14.22;85.72
13407;BME280;6774;48.208;10.766;2023-05-21T03:23:02;95081.84;;;14.22;85.54
13407;BME280;6774;48.208;10.766;2023-05-21T03:25:30;95078.41;;;14.21;85.59
13407;BME280;6774;48.208;10.766;2023-05-21T03:27:58;95078.63;;;14.20;85.56
13407;BME280;6774;48.208;10.766;2023-05-21T03:30:41;95071.25;;;14.22;85.46
13407;BME280;6774;48.208;10.766;2023-05-21T03:33:47;95076.78;;;14.20;85.68
13407;BME280;6774;48.208;10.766;2023-05-21T03:36:23;95080.69;;;14.18;85.92
13407;BME280;6774;48.208;10.766;2023-05-21T03:38:51;95074.78;;;14.16;85.68
13407;BME280;6774;48.208;10.766;2023-05-21T03:41:19;95078.22;;;14.16;85.83
13407;BME280;6774;48.208;10.766;2023-05-21T03:43:53;95075.56;;;14.16;85.89
13407;BME280;6774;48.208;10.766;2023-05-21T03:46:24;95079.94;;;14.11;86.25
13407;BME280;6774;48.208;10.766;2023-05-21T03:49:01;95085.59;;;14.14;86.01
13407;BME280;6774;48.208;10.766;2023-05-21T03:51:32;95075.22;;;14.13;86.19
13407;BME280;6774;48.208;10.766;2023-05-21T03:54:00;95089.06;;;14.15;86.18
13407;BME280;6774;48.208;10.766;2023-05-21T03:56:28;95089.53;;;14.12;86.12
13407;BME280;6774;48.208;10.766;2023-05-21T03:58:56;95096.22;;;14.14;86.25
13407;BME280;6774;48.208;10.766;2023-05-21T04:01:24;95095.41;;;14.14;86.05
13407;BME280;6774;48.208;10.766;2023-05-21T04:03:54;95092.63;;;14.09;86.24
13407;BME280;6774;48.208;10.766;2023-05-21T04:06:24;95101.34;;;13.91;86.16
13407;BME280;6774;48.208;10.766;2023-05-21T04:08:53;95096.25;;;13.89;85.63
13407;BME280;6774;48.208;10.766;2023-05-21T04:11:20;95100.91;;;13.94;85.69
13407;BME280;6774;48.208;10.766;2023-05-21T04:13:48;95098.47;;;13.92;85.37
13407;BME280;6774;48.208;10.766;2023-05-21T04:16:17;95098.25;;;13.94;85.38
13407;BME280;6774;48.208;10.766;2023-05-21T04:18:45;95097.66;;;13.92;85.42
13407;BME280;6774;48.208;10.766;2023-05-21T04:21:15;95095.84;;;13.92;85.68
13407;BME280;6774;48.208;10.766;2023-05-21T04:23:43;95107.03;;;13.94;85.43
13407;BME280;6774;48.208;10.766;2023-05-21T04:26:24;95109.03;;;13.99;85.80
13407;BME280;6774;48.208;10.766;2023-05-21T04:28:53;95103.28;;;14.02;85.87
13407;BME280;6774;48.208;10.766;2023-05-21T04:31:21;95108.53;;;14.09;85.47
13407;BME280;6774;48.208;10.766;2023-05-21T04:33:49;95109.72;;;14.13;85.84
13407;BME280;6774;48.208;10.766;2023-05-21T04:36:17;95107.22;;;14.18;85.80
13407;BME280;6774;48.208;10.766;2023-05-21T04:38:45;95102.28;;;14.21;85.69
13407;BME280;6774;48.208;10.766;2023-05-21T04:41:14;95105.28;;;14.25;85.86
13407;BME280;6774;48.208;10.766;2023-05-21T04:43:45;95105.00;;;14.33;85.98
13407;BME280;6774;48.208;10.766;2023-05-21T04:46:14;95107.00;;;14.38;85.92
13407;BME280;6774;48.208;10.766;2023-05-21T04:48:42;95109.81;;;14.43;85.79
13407;BME280;6774;48.208;10.766;2023-05-21T04:51:11;95108.16;;;14.48;85.75
13407;BME280;6774;48.208;10.766;2023-05-21T04:53:41;95115.00;;;14.56;85.99
13407;BME280;6774;48.208;10.766;2023-05-21T04:56:08;95113.28;;;14.62;85.77
13407;BME280;6774;48.208;10.766;2023-05-21T04:58:36;95110.34;;;14.70;85.56
13407;BME280;6774;48.208;10.766;2023-05-21T05:01:07;95112.94;;;14.76;85.59
13407;BME280;6774;48.208;10.766;2023-05-21T05:03:35;95115.06;;;14.86;85.18
13407;BME280;6774;48.208;10.766;2023-05-21T05:06:04;95118.44;;;14.93;85.15
13407;BME280;6774;48.208;10.766;2023-05-21T05:08:33;95116.94;;;14.97;84.83
13407;BME280;6774;48.208;10.766;2023-05-21T05:11:02;95119.75;;;15.02;84.47
13407;BME280;6774;48.208;10.766;2023-05-21T05:13:31;95120.50;;;15.10;84.14
13407;BME280;6774;48.208;10.766;2023-05-21T05:15:58;95122.00;;;15.17;83.83
13407;BME280;6774;48.208;10.766;2023-05-21T05:18:28;95125.16;;;15.26;83.60
13407;BME280;6774;48.208;10.766;2023-05-21T05:20:56;95127.50;;;15.34;83.45
13407;BME280;6774;48.208;10.766;2023-05-21T05:23:23;95117.13;;;15.44;82.97
13407;BME280;6774;48.208;10.766;2023-05-21T05:25:51;95117.97;;;15.56;82.95
13407;BME280;6774;48.208;10.766;2023-05-21T05:28:20;95110.75;;;15.63;82.40
13407;BME280;6774;48.208;10.766;2023-05-21T05:30:48;95116.31;;;15.74;82.15
13407;BME280;6774;48.208;10.766;2023-05-21T05:33:25;95117.00;;;15.81;81.99
13407;BME280;6774;48.208;10.766;2023-05-21T05:35:54;95119.31;;;15.89;81.34
13407;BME280;6774;48.208;10.766;2023-05-21T05:38:22;95113.09;;;15.95;80.91
13407;BME280;6774;48.208;10.766;2023-05-21T05:40:50;95110.56;;;16.00;80.53
13407;BME280;6774;48.208;10.766;2023-05-21T05:43:17;95116.56;;;16.07;80.03
13407;BME280;6774;48.208;10.766;2023-05-21T05:45:45;95112.97;;;16.13;79.41
13407;BME280;6774;48.208;10.766;2023-05-21T05:48:14;95111.03;;;16.20;78.80
13407;BME280;6774;48.208;10.766;2023-05-21T05:50:42;95124.44;;;16.26;78.84
13407;BME280;6774;48.208;10.766;2023-05-21T05:53:12;95113.44;;;16.34;78.50
13407;BME280;6774;48.208;10.766;2023-05-21T05:55:40;95121.31;;;16.40;78.73
13407;BME280;6774;48.208;10.766;2023-05-21T05:58:08;95119.09;;;16.49;78.85
13407;BME280;6774;48.208;10.766;2023-05-21T06:00:55;95121.84;;;16.54;78.48
13407;BME280;6774;48.208;10.766;2023-05-21T06:03:23;95120.44;;;16.63;78.55
13407;BME280;6774;48.208;10.766;2023-05-21T06:05:52;95130.09;;;16.76;78.37
13407;BME280;6774;48.208;10.766;2023-05-21T06:08:22;95134.44;;;16.82;78.22
13407;BME280;6774;48.208;10.766;2023-05-21T06:10:51;95127.88;;;16.85;78.10
13407;BME280;6774;48.208;10.766;2023-05-21T06:13:19;95129.69;;;16.96;77.09
13407;BME280;6774;48.208;10.766;2023-05-21T06:15:47;95133.47;;;17.00;75.50
13407;BME280;6774;48.208;10.766;2023-05-21T06:18:15;95122.94;;;17.05;75.44
13407;BME280;6774;48.208;10.766;2023-05-21T06:20:43;95123.13;;;17.15;75.11
13407;BME280;6774;48.208;10.766;2023-05-21T06:23:13;95120.56;;;17.20;74.95
13407;BME280;6774;48.208;10.766;2023-05-21T06:25:45;95120.56;;;17.20;74.94
13407;BME280;6774;48.208;10.766;2023-05-21T06:28:13;95121.22;;;17.27;74.13
13407;BME280;6774;48.208;10.766;2023-05-21T06:30:43;95121.88;;;17.34;74.12
13407;BME280;6774;48.208;10.766;2023-05-21T06:33:11;95118.34;;;17.46;73.47
13407;BME280;6774;48.208;10.766;2023-05-21T06:35:38;95125.72;;;17.55;73.67
13407;BME280;6774;48.208;10.766;2023-05-21T06:38:08;95117.56;;;17.62;73.56
13407;BME280;6774;48.208;10.766;2023-05-21T06:40:36;95124.72;;;17.73;72.86
13407;BME280;6774;48.208;10.766;2023-05-21T06:43:06;95130.66;;;17.75;72.00
13407;BME280;6774;48.208;10.766;2023-05-21T06:45:52;95128.03;;;17.80;71.06
13407;BME280;6774;48.208;10.766;2023-05-21T06:48:35;95138.81;;;17.85;70.68
13407;BME280;6774;48.208;10.766;2023-05-21T06:51:04;95136.41;;;17.84;70.42
13407;BME280;6774;48.208;10.766;2023-05-21T06:53:32;95135.66;;;17.88;70.43
13407;BME280;6774;48.208;10.766;2023-05-21T06:56:00;95134.94;;;17.93;70.93
13407;BME280;6774;48.208;10.766;2023-05-21T06:58:36;95139.94;;;18.06;70.98
13407;BME280;6774;48.208;10.766;2023-05-21T07:01:04;95142.63;;;18.23;71.03
13407;BME280;6774;48.208;10.766;2023-05-21T07:03:32;95136.38;;;18.34;70.66
13407;BME280;6774;48.208;10.766;2023-05-21T07:06:00;95141.38;;;18.47;70.24
13407;BME280;6774;48.208;10.766;2023-05-21T07:08:28;95138.03;;;18.57;69.46
13407;BME280;6774;48.208;10.766;2023-05-21T07:10:57;95136.22;;;18.63;68.71
13407;BME280;6774;48.208;10.766;2023-05-21T07:13:25;95135.91;;;18.76;68.66
13407;BME280;6774;48.208;10.766;2023-05-21T07:15:55;95131.34;;;18.93;68.90
13407;BME280;6774;48.208;10.766;2023-05-21T07:18:24;95139.53;;;18.87;66.44
13407;BME280;6774;48.208;10.766;2023-05-21T07:20:52;95141.22;;;18.93;66.40
13407;BME280;6774;48.208;10.766;2023-05-21T07:23:20;95146.63;;;18.98;66.21
13407;BME280;6774;48.208;10.766;2023-05-21T07:25:48;95151.28;;;19.08;66.11
13407;BME280;6774;48.208;10.766;2023-05-21T07:28:17;95149.53;;;19.18;66.35
13407;BME280;6774;48.208;10.766;2023-05-21T07:30:45;95148.28;;;19.26;65.55
13407;BME280;6774;48.208;10.766;2023-05-21T07:33:19;95146.47;;;19.31;64.84
13407;BME280;6774;48.208;10.766;2023-05-21T07:35:50;95142.03;;;19.42;64.74
13407;BME280;6774;48.208;10.766;2023-05-21T07:38:18;95145.09;;;19.51;65.03
13407;BME280;6774;48.208;10.766;2023-05-21T07:40:46;95136.28;;;19.55;64.55
13407;BME280;6774;48.208;10.766;2023-05-21T07:43:14;95144.16;;;19.62;64.95
13407;BME280;6774;48.208;10.766;2023-05-21T07:45:42;95141.38;;;19.79;65.04
13407;BME280;6774;48.208;10.766;2023-05-21T07:48:10;95133.75;;;19.98;64.95
13407;BME280;6774;48.208;10.766;2023-05-21T07:50:50;95137.06;;;20.10;63.14
13407;BME280;6774;48.208;10.766;2023-05-21T07:53:18;95134.69;;;20.13;63.15
13407;BME280;6774;48.208;10.766;2023-05-21T07:55:47;95132.84;;;20.19;61.95
13407;BME280;6774;48.208;10.766;2023-05-21T07:58:18;95142.88;;;20.34;62.38
13407;BME280;6774;48.208;10.766;2023-05-21T08:00:47;95143.47;;;20.41;62.17
13407;BME280;6774;48.208;10.766;2023-05-21T08:03:17;95142.41;;;20.42;61.22
13407;BME280;6774;48.208;10.766;2023-05-21T08:05:46;95151.06;;;20.49;61.55
13407;BME280;6774;48.208;10.766;2023-05-21T08:08:18;95150.06;;;20.60;61.96
13407;BME280;6774;48.208;10.766;2023-05-21T08:10:48;95149.75;;;20.57;61.34
13407;BME280;6774;48.208;10.766;2023-05-21T08:13:18;95150.72;;;20.83;61.98
13407;BME280;6774;48.208;10.766;2023-05-21T08:15:47;95154.59;;;21.07;61.42
13407;BME280;6774;48.208;10.766;2023-05-21T08:18:19;95150.88;;;21.13;59.29
13407;BME280;6774;48.208;10.766;2023-05-21T08:20:51;95152.53;;;21.24;59.66
13407;BME280;6774;48.208;10.766;2023-05-21T08:23:22;95154.75;;;21.43;59.15
13407;BME280;6774;48.208;10.766;2023-05-21T08:25:53;95148.38;;;21.59;59.98
13407;BME280;6774;48.208;10.766;2023-05-21T08:28:21;95147.84;;;21.77;58.29
13407;BME280;6774;48.208;10.766;2023-05-21T08:30:50;95153.81;;;22.05;59.56
13407;BME280;6774;48.208;10.766;2023-05-21T08:33:20;95165.09;;;22.37;59.32
13407;BME280;6774;48.208;10.766;2023-05-21T08:35:48;95150.03;;;22.57;57.79
13407;BME280;6774;48.208;10.766;2023-05-21T08:38:27;95157.00;;;22.73;56.49
13407;BME280;6774;48.208;10.766;2023-05-21T08:41:06;95151.88;;;22.71;54.74
13407;BME280;6774;48.208;10.766;2023-05-21T08:43:36;95157.25;;;22.77;55.45
13407;BME280;6774;48.208;10.766;2023-05-21T08:46:05;95161.03;;;23.61;54.16
13407;BME280;6774;48.208;10.766;2023-05-21T08:48:37;95156.81;;;24.33;52.62
13407;BME280;6774;48.208;10.766;2023-05-21T08:51:05;95162.63;;;23.56;55.23
13407;BME280;6774;48.208;10.766;2023-05-21T08:53:43;95166.97;;;23.52;54.40
13407;BME280;6774;48.208;10.766;2023-05-21T08:56:16;95164.53;;;23.56;54.38
13407;BME280;6774;48.208;10.766;2023-05-21T08:58:47;95163.47;;;23.62;54.95
13407;BME280;6774;48.208;10.766;2023-05-21T09:01:18;95166.38;;;23.71;53.91
13407;BME280;6774;48.208;10.766;2023-05-21T09:03:56;95160.91;;;23.81;52.89
13407;BME280;6774;48.208;10.766;2023-05-21T09:06:39;95171.69;;;23.81;52.27
13407;BME280;6774;48.208;10.766;2023-05-21T09:09:13;95165.13;;;23.97;52.62
13407;BME280;6774;48.208;10.766;2023-05-21T09:11:47;95167.63;;;24.23;52.45
13407;BME280;6774;48.208;10.766;2023-05-21T09:14:16;95158.66;;;24.37;53.93
13407;BME280;6774;48.208;10.766;2023-05-21T09:16:59;95163.91;;;24.82;53.68
13407;BME280;6774;48.208;10.766;2023-05-21T09:19:27;95170.59;;;25.13;52.45
13407;BME280;6774;48.208;10.766;2023-05-21T09:22:00;95172.66;;;25.21;52.02
13407;BME280;6774;48.208;10.766;2023-05-21T09:24:31;95164.22;;;25.04;51.98
13407;BME280;6774;48.208;10.766;2023-05-21T09:27:05;95167.16;;;25.32;52.83
13407;BME280;6774;48.208;10.766;2023-05-21T09:29:33;95164.22;;;25.52;52.76
13407;BME280;6774;48.208;10.766;2023-05-21T09:32:05;95163.47;;;25.89;52.98
13407;BME280;6774;48.208;10.766;2023-05-21T09:34:35;95164.19;;;25.95;51.73
13407;BME280;6774;48.208;10.766;2023-05-21T09:37:05;95159.50;;;26.19;50.60
13407;BME280;6774;48.208;10.766;2023-05-21T09:39:53;95165.16;;;26.36;51.32
13407;BME280;6774;48.208;10.766;2023-05-21T09:42:21;95159.31;;;26.29;49.73
13407;BME280;6774;48.208;10.766;2023-05-21T09:44:49;95158.63;;;26.56;51.18
13407;BME280;6774;48.208;10.766;2023-05-21T09:47:19;95159.19;;;26.86;49.88
13407;BME280;6774;48.208;10.766;2023-05-21T09:49:48;95156.75;;;27.17;49.77
13407;BME280;6774;48.208;10.766;2023-05-21T09:52:22;95158.13;;;27.56;49.14
13407;BME280;6774;48.208;10.766;2023-05-21T09:54:51;95166.13;;;27.88;49.31
13407;BME280;6774;48.208;10.766;2023-05-21T09:57:24;95160.41;;;28.48;47.44
13407;BME280;6774;48.208;10.766;2023-05-21T09:59:51;95155.28;;;29.40;45.19
13407;BME280;6774;48.208;10.766;2023-05-21T10:02:20;95144.53;;;29.74;43.98
13407;BME280;6774;48.208;10.766;2023-05-21T10:04:50;95143.25;;;29.81;45.61
13407;BME280;6774;48.208;10.766;2023-05-21T10:07:21;95144.56;;;29.92;44.61
13407;BME280;6774;48.208;10.766;2023-05-21T10:09:53;95144.53;;;29.74;44.22
13407;BME280;6774;48.208;10.766;2023-05-21T10:12:23;95147.41;;;29.87;44.57
13407;BME280;6774;48.208;10.766;2023-05-21T10:14:56;95145.06;;;30.11;44.90
13407;BME280;6774;48.208;10.766;2023-05-21T10:17:27;95136.72;;;30.42;44.39
13407;BME280;6774;48.208;10.766;2023-05-21T10:19:55;95143.22;;;30.84;44.40
13407;BME280;6774;48.208;10.766;2023-05-21T10:22:24;95139.38;;;30.85;43.37
13407;BME280;6774;48.208;10.766;2023-05-21T10:24:53;95144.94;;;30.98;43.13
13407;BME280;6774;48.208;10.766;2023-05-21T10:27:21;95134.78;;;31.15;42.50
13407;BME280;6774;48.208;10.766;2023-05-21T10:29:52;95138.16;;;31.12;42.25
13407;BME280;6774;48.208;10.766;2023-05-21T10:32:21;95134.63;;;31.12;42.91
13407;BME280;6774;48.208;10.766;2023-05-21T10:34:52;95132.16;;;31.36;42.61
13407;BME280;6774;48.208;10.766;2023-05-21T10:37:22;95129.81;;;31.56;42.44
13407;BME280;6774;48.208;10.766;2023-05-21T10:39:51;95131.28;;;31.45;42.05
13407;BME280;6774;48.208;10.766;2023-05-21T10:42:23;95126.75;;;31.57;42.19
13407;BME280;6774;48.208;10.766;2023-05-21T10:45:05;95116.59;;;31.87;42.98
13407;BME280;6774;48.208;10.766;2023-05-21T10:47:59;95120.38;;;32.37;40.24
13407;BME280;6774;48.208;10.766;2023-05-21T10:50:58;95120.56;;;32.52;41.25
13407;BME280;6774;48.208;10.766;2023-05-21T10:53:51;95118.22;;;32.30;41.04
13407;BME280;6774;48.208;10.766;2023-05-21T10:56:29;95118.94;;;31.97;41.54
13407;BME280;6774;48.208;10.766;2023-05-21T10:59:11;95116.94;;;31.86;42.80
13407;BME280;6774;48.208;10.766;2023-05-21T11:01:49;95123.19;;;31.86;41.89
13407;BME280;6774;48.208;10.766;2023-05-21T11:04:22;95118.81;;;31.94;40.82
13407;BME280;6774;48.208;10.766;2023-05-21T11:06:50;95113.34;;;32.15;41.88
13407;BME280;6774;48.208;10.766;2023-05-21T11:09:17;95113.34;;;32.36;42.88
13407;BME280;6774;48.208;10.766;2023-05-21T11:11:49;95106.81;;;32.94;41.97
13407;BME280;6774;48.208;10.766;2023-05-21T11:14:28;95105.50;;;33.49;42.21
13407;BME280;6774;48.208;10.766;2023-05-21T11:17:02;95105.69;;;33.69;40.87
13407;BME280;6774;48.208;10.766;2023-05-21T11:19:35;95103.41;;;33.71;39.85
13407;BME280;6774;48.208;10.766;2023-05-21T11:22:09;95096.00;;;33.47;38.23
13407;BME280;6774;48.208;10.766;2023-05-21T11:24:47;95107.06;;;33.01;39.50
13407;BME280;6774;48.208;10.766;2023-05-21T11:27:30;95113.13;;;32.74;38.86
13407;BME280;6774;48.208;10.766;2023-05-21T11:30:00;95112.53;;;32.68;39.27
13407;BME280;6774;48.208;10.766;2023-05-21T11:32:31;95109.22;;;32.63;40.23
13407;BME280;6774;48.208;10.766;2023-05-21T11:34:59;95106.00;;;32.48;40.06
13407;BME280;6774;48.208;10.766;2023-05-21T11:37:29;95109.47;;;32.16;38.91
13407;BME280;6774;48.208;10.766;2023-05-21T11:40:14;95101.09;;;32.21;39.86
13407;BME280;6774;48.208;10.766;2023-05-21T11:42:48;95100.41;;;32.24;39.70
13407;BME280;6774;48.208;10.766;2023-05-21T11:45:17;95106.81;;;32.28;40.20
13407;BME280;6774;48.208;10.766;2023-05-21T11:47:47;95110.19;;;32.46;39.44
13407;BME280;6774;48.208;10.766;2023-05-21T11:50:15;95109.69;;;32.65;39.93
13407;BME280;6774;48.208;10.766;2023-05-21T11:52:43;95105.75;;;32.41;38.70
13407;BME280;6774;48.208;10.766;2023-05-21T11:55:11;95111.00;;;32.46;39.22
13407;BME280;6774;48.208;10.766;2023-05-21T11:57:41;95110.88;;;31.80;37.66
13407;BME280;6774;48.208;10.766;2023-05-21T12:00:14;95111.38;;;31.82;38.31
13407;BME280;6774;48.208;10.766;2023-05-21T12:02:44;95109.16;;;31.96;39.83
13407;BME280;6774;48.208;10.766;2023-05-21T12:05:14;95110.09;;;31.71;40.56
13407;BME280;6774;48.208;10.766;2023-05-21T12:07:45;95112.75;;;31.59;39.52
13407;BME280;6774;48.208;10.766;2023-05-21T12:10:15;95118.22;;;31.59;41.03
13407;BME280;6774;48.208;10.766;2023-05-21T12:12:43;95115.41;;;31.47;40.50
13407;BME280;6774;48.208;10.766;2023-05-21T12:15:22;95119.44;;;31.40;40.35
13407;BME280;6774;48.208;10.766;2023-05-21T12:17:51;95106.28;;;31.42;41.22
13407;BME280;6774;48.208;10.766;2023-05-21T12:20:20;95117.19;;;31.42;40.52
13407;BME280;6774;48.208;10.766;2023-05-21T12:22:48;95116.34;;;31.12;40.15
13407;BME280;6774;48.208;10.766;2023-05-21T12:25:17;95117.66;;;31.06;39.75
13407;BME280;6774;48.208;10.766;2023-05-21T12:27:46;95113.06;;;30.90;39.76
13407;BME280;6774;48.208;10.766;2023-05-21T12:30:15;95107.63;;;30.90;40.81
13407;BME280;6774;48.208;10.766;2023-05-21T12:32:43;95109.00;;;30.66;39.41
13407;BME280;6774;48.208;10.766;2023-05-21T12:35:20;95114.09;;;30.68;39.46
13407;BME280;6774;48.208;10.766;2023-05-21T12:37:50;95120.28;;;30.94;39.08
13407;BME280;6774;48.208;10.766;2023-05-21T12:40:18;95112.69;;;31.00;40.82
13407;BME280;6774;48.208;10.766;2023-05-21T12:42:48;95110.09;;;31.12;38.87
13407;BME280;6774;48.208;10.766;2023-05-21T12:45:16;95114.75;;;30.73;38.64
13407;BME280;6774;48.208;10.766;2023-05-21T12:47:47;95115.38;;;30.70;40.46
13407;BME280;6774;48.208;10.766;2023-05-21T12:50:19;95111.06;;;30.69;39.99
13407;BME280;6774;48.208;10.766;2023-05-21T12:52:52;95112.84;;;30.65;39.51
13407;BME280;6774;48.208;10.766;2023-05-21T12:55:22;95112.50;;;30.58;39.13
13407;BME280;6774;48.208;10.766;2023-05-21T12:57:52;95111.69;;;30.57;39.67
13407;BME280;6774;48.208;10.766;2023-05-21T13:00:26;95103.19;;;30.59;37.66
13407;BME280;6774;48.208;10.766;2023-05-21T13:02:54;95112.03;;;30.56;38.31
13407;BME280;6774;48.208;10.766;2023-05-21T13:05:22;95110.75;;;30.45;38.88
13407;BME280;6774;48.208;10.766;2023-05-21T13:07:51;95106.59;;;30.56;38.58
13407;BME280;6774;48.208;10.766;2023-05-21T13:10:19;95100.94;;;30.61;39.34
13407;BME280;6774;48.208;10.766;2023-05-21T13:12:47;95102.88;;;30.69;39.14
13407;BME280;6774;48.208;10.766;2023-05-21T13:15:15;95107.41;;;30.65;38.80
13407;BME280;6774;48.208;10.766;2023-05-21T13:17:43;95099.47;;;30.81;40.69